Nagarote, Nicaragua

3:32 PM CST on September 04, 2015 (GMT -0600)
Chinandega | | Change Station
CLOSE
Current Station
Airport
Location: Chinandega,
Elevation: 174 ft
Nearby Weather Stations

Elev 174 ft 12.64 °N, 87.14 °W | Updated 32 minutes ago

Thunderstorm
Thunderstorm
88 °F
Feels Like 94 °F
N
9
Wind Variable Wind from NNE

Today
High -- | Low -- °F
--% Chance of Precip.
Yesterday
High -- | Low -- °F
Precip. -- in
5:35 AM 5:54 PM
Waning Gibbous, 56% visible
Pressure 29.80 in
Visibility 6.2 miles
Clouds Few 2400 ft
Scattered Clouds 2500 ft
Heat Index 94 °F
Dew Point 72 °F
Humidity 58%
Rainfall 0.00 in
Snow Depth Not available.
UV 5 out of 12
Pollen Not available.
Air Quality Not available.
Flu Activity Not available.
METAR MNCH 042100Z 03008KT 9999 TS FEW024CB SCT025 31/22 Q1009 CB/NE/E/SE/NW
Pressure 29.80 in
Visibility 6.2 miles
Clouds Few 2400 ft
Scattered Clouds 2500 ft
Heat Index 94 °F
Dew Point 72 °F
Humidity 58%
Rainfall 0.00 in
Snow Depth Not available.
UV 5 out of 12
Pollen Not available.
Air Quality Not available.
Flu Activity Not available.
METAR MNCH 042100Z 03008KT 9999 TS FEW024CB SCT025 31/22 Q1009 CB/NE/E/SE/NW

10-Day Weather Forecast

×

Almanac

Astronomy

Sep. 04, 2015 Rise Set
Actual Time
Civil Twilight
Nautical Twilight
Astronomical Twilight
Moon
Length of Visible Light
Length of Day
Tomorrow will be .
, % of the Moon is Illuminated

Today's Extremes

Country Highs Country Lows

Community

WunderPhotos

Upload Photos

1,852,297 photos uploaded!

WunderBlogs® & News

Nearby

Air Quality

  Air Quality AQ Index Pollutant
Not available.

Snow Depth

Station Depth Elevation

Earthquake Activity

City Distance Mag. Time & Date
Minimum magnitude displayed is 2.5.

Coastal Water Temperatures

Place Temperature

Stations

Nearby Weather Stations

Station Location Temp. Windchill Dew Point Humidity Wind Precip. Elev Updated Type